sensor_id;sensor_type;location;lat;lon;timestamp;P1;durP1;ratioP1;P2;durP2;ratioP2
64887;SDS011;51386;53.082;8.816;2022-12-16T00:01:20;20.30;;;14.27;;
64887;SDS011;51386;53.082;8.816;2022-12-16T00:03:51;19.30;;;13.20;;
64887;SDS011;51386;53.082;8.816;2022-12-16T00:06:21;17.97;;;13.17;;
64887;SDS011;51386;53.082;8.816;2022-12-16T00:08:50;21.20;;;15.27;;
64887;SDS011;51386;53.082;8.816;2022-12-16T00:11:20;18.70;;;13.07;;
64887;SDS011;51386;53.082;8.816;2022-12-16T00:13:47;19.50;;;13.67;;
64887;SDS011;51386;53.082;8.816;2022-12-16T00:16:16;21.63;;;14.67;;
64887;SDS011;51386;53.082;8.816;2022-12-16T00:18:46;22.97;;;14.23;;
64887;SDS011;51386;53.082;8.816;2022-12-16T00:21:13;19.90;;;14.30;;
64887;SDS011;51386;53.082;8.816;2022-12-16T00:23:43;21.40;;;12.43;;
64887;SDS011;51386;53.082;8.816;2022-12-16T00:26:11;25.20;;;13.50;;
64887;SDS011;51386;53.082;8.816;2022-12-16T00:28:40;17.33;;;13.30;;
64887;SDS011;51386;53.082;8.816;2022-12-16T00:31:08;19.10;;;13.80;;
64887;SDS011;51386;53.082;8.816;2022-12-16T00:33:36;21.30;;;13.97;;
64887;SDS011;51386;53.082;8.816;2022-12-16T00:36:04;21.97;;;14.90;;
64887;SDS011;51386;53.082;8.816;2022-12-16T00:38:32;20.37;;;13.80;;
64887;SDS011;51386;53.082;8.816;2022-12-16T00:40:58;20.87;;;14.60;;
64887;SDS011;51386;53.082;8.816;2022-12-16T00:43:26;19.80;;;13.23;;
64887;SDS011;51386;53.082;8.816;2022-12-16T00:45:54;19.10;;;14.27;;
64887;SDS011;51386;53.082;8.816;2022-12-16T00:48:21;17.87;;;13.23;;
64887;SDS011;51386;53.082;8.816;2022-12-16T00:50:49;19.70;;;13.40;;
64887;SDS011;51386;53.082;8.816;2022-12-16T00:53:20;22.63;;;14.43;;
64887;SDS011;51386;53.082;8.816;2022-12-16T00:55:49;19.80;;;14.00;;
64887;SDS011;51386;53.082;8.816;2022-12-16T00:58:17;20.83;;;13.37;;
64887;SDS011;51386;53.082;8.816;2022-12-16T01:00:44;18.40;;;12.90;;
64887;SDS011;51386;53.082;8.816;2022-12-16T01:03:12;16.53;;;13.23;;
64887;SDS011;51386;53.082;8.816;2022-12-16T01:05:46;21.93;;;14.00;;
64887;SDS011;51386;53.082;8.816;2022-12-16T01:08:14;18.63;;;13.17;;
64887;SDS011;51386;53.082;8.816;2022-12-16T01:10:41;20.60;;;14.13;;
64887;SDS011;51386;53.082;8.816;2022-12-16T01:13:15;18.23;;;13.53;;
64887;SDS011;51386;53.082;8.816;2022-12-16T01:15:43;19.83;;;13.70;;
64887;SDS011;51386;53.082;8.816;2022-12-16T01:18:10;18.87;;;13.10;;
64887;SDS011;51386;53.082;8.816;2022-12-16T01:20:38;17.50;;;14.03;;
64887;SDS011;51386;53.082;8.816;2022-12-16T01:23:05;18.33;;;13.53;;
64887;SDS011;51386;53.082;8.816;2022-12-16T01:25:33;19.73;;;13.90;;
64887;SDS011;51386;53.082;8.816;2022-12-16T01:28:00;17.03;;;12.27;;
64887;SDS011;51386;53.082;8.816;2022-12-16T01:30:27;18.87;;;12.90;;
64887;SDS011;51386;53.082;8.816;2022-12-16T01:32:54;19.87;;;15.23;;
64887;SDS011;51386;53.082;8.816;2022-12-16T01:35:21;17.67;;;13.43;;
64887;SDS011;51386;53.082;8.816;2022-12-16T01:38:10;20.43;;;14.57;;
64887;SDS011;51386;53.082;8.816;2022-12-16T01:40:36;19.53;;;14.20;;
64887;SDS011;51386;53.082;8.816;2022-12-16T01:43:07;18.47;;;14.20;;
64887;SDS011;51386;53.082;8.816;2022-12-16T01:45:38;20.77;;;15.00;;
64887;SDS011;51386;53.082;8.816;2022-12-16T01:48:06;21.77;;;14.37;;
64887;SDS011;51386;53.082;8.816;2022-12-16T01:50:46;17.07;;;13.30;;
64887;SDS011;51386;53.082;8.816;2022-12-16T01:53:20;20.63;;;14.67;;
64887;SDS011;51386;53.082;8.816;2022-12-16T01:55:47;20.23;;;14.63;;
64887;SDS011;51386;53.082;8.816;2022-12-16T01:58:20;18.90;;;13.57;;
64887;SDS011;51386;53.082;8.816;2022-12-16T02:00:52;18.73;;;13.83;;
64887;SDS011;51386;53.082;8.816;2022-12-16T02:03:20;22.20;;;15.00;;
64887;SDS011;51386;53.082;8.816;2022-12-16T02:05:47;24.20;;;15.13;;
64887;SDS011;51386;53.082;8.816;2022-12-16T02:08:17;20.33;;;15.67;;
64887;SDS011;51386;53.082;8.816;2022-12-16T02:10:49;20.87;;;15.27;;
64887;SDS011;51386;53.082;8.816;2022-12-16T02:13:39;23.33;;;16.60;;
64887;SDS011;51386;53.082;8.816;2022-12-16T02:16:35;18.37;;;14.37;;
64887;SDS011;51386;53.082;8.816;2022-12-16T02:19:24;25.87;;;15.90;;
64887;SDS011;51386;53.082;8.816;2022-12-16T02:22:31;21.47;;;15.53;;
64887;SDS011;51386;53.082;8.816;2022-12-16T02:25:32;23.73;;;15.40;;
64887;SDS011;51386;53.082;8.816;2022-12-16T02:28:27;24.10;;;16.00;;
64887;SDS011;51386;53.082;8.816;2022-12-16T02:31:23;21.60;;;15.63;;
64887;SDS011;51386;53.082;8.816;2022-12-16T02:34:10;19.53;;;14.87;;
64887;SDS011;51386;53.082;8.816;2022-12-16T02:36:50;23.20;;;15.43;;
64887;SDS011;51386;53.082;8.816;2022-12-16T02:39:35;21.20;;;14.70;;
64887;SDS011;51386;53.082;8.816;2022-12-16T02:42:06;20.50;;;15.07;;
64887;SDS011;51386;53.082;8.816;2022-12-16T02:44:47;23.10;;;16.60;;
64887;SDS011;51386;53.082;8.816;2022-12-16T02:47:29;22.30;;;14.97;;
64887;SDS011;51386;53.082;8.816;2022-12-16T02:49:58;23.27;;;14.27;;
64887;SDS011;51386;53.082;8.816;2022-12-16T02:52:26;21.30;;;15.83;;
64887;SDS011;51386;53.082;8.816;2022-12-16T02:54:58;20.50;;;13.63;;
64887;SDS011;51386;53.082;8.816;2022-12-16T02:57:44;25.30;;;16.13;;
64887;SDS011;51386;53.082;8.816;2022-12-16T03:00:37;20.33;;;15.00;;
64887;SDS011;51386;53.082;8.816;2022-12-16T03:03:22;21.27;;;14.17;;
64887;SDS011;51386;53.082;8.816;2022-12-16T03:05:56;23.00;;;15.53;;
64887;SDS011;51386;53.082;8.816;2022-12-16T03:08:28;20.20;;;15.27;;
64887;SDS011;51386;53.082;8.816;2022-12-16T03:11:01;21.27;;;14.60;;
64887;SDS011;51386;53.082;8.816;2022-12-16T03:13:34;22.90;;;15.37;;
64887;SDS011;51386;53.082;8.816;2022-12-16T03:16:09;21.93;;;16.67;;
64887;SDS011;51386;53.082;8.816;2022-12-16T03:18:43;22.80;;;16.00;;
64887;SDS011;51386;53.082;8.816;2022-12-16T03:21:20;20.33;;;15.17;;
64887;SDS011;51386;53.082;8.816;2022-12-16T03:23:53;20.97;;;16.73;;
64887;SDS011;51386;53.082;8.816;2022-12-16T03:26:26;24.27;;;16.20;;
64887;SDS011;51386;53.082;8.816;2022-12-16T03:29:00;19.03;;;15.30;;
64887;SDS011;51386;53.082;8.816;2022-12-16T03:31:35;20.23;;;15.23;;
64887;SDS011;51386;53.082;8.816;2022-12-16T03:34:11;20.13;;;14.53;;
64887;SDS011;51386;53.082;8.816;2022-12-16T03:36:46;19.03;;;15.17;;
64887;SDS011;51386;53.082;8.816;2022-12-16T03:39:21;24.03;;;16.43;;
64887;SDS011;51386;53.082;8.816;2022-12-16T03:41:52;24.00;;;16.57;;
64887;SDS011;51386;53.082;8.816;2022-12-16T03:44:22;20.57;;;15.00;;
64887;SDS011;51386;53.082;8.816;2022-12-16T03:46:50;25.27;;;17.53;;
64887;SDS011;51386;53.082;8.816;2022-12-16T03:49:19;26.53;;;18.13;;
64887;SDS011;51386;53.082;8.816;2022-12-16T03:51:47;22.47;;;15.53;;
64887;SDS011;51386;53.082;8.816;2022-12-16T03:54:14;23.20;;;16.67;;
64887;SDS011;51386;53.082;8.816;2022-12-16T03:56:41;25.03;;;16.57;;
64887;SDS011;51386;53.082;8.816;2022-12-16T03:59:08;23.60;;;17.13;;
64887;SDS011;51386;53.082;8.816;2022-12-16T04:01:36;25.83;;;16.80;;
64887;SDS011;51386;53.082;8.816;2022-12-16T04:04:03;22.97;;;16.50;;
64887;SDS011;51386;53.082;8.816;2022-12-16T04:06:31;22.13;;;16.03;;
64887;SDS011;51386;53.082;8.816;2022-12-16T04:08:59;21.23;;;15.57;;
64887;SDS011;51386;53.082;8.816;2022-12-16T04:11:25;22.67;;;16.50;;
64887;SDS011;51386;53.082;8.816;2022-12-16T04:14:28;22.37;;;15.60;;
64887;SDS011;51386;53.082;8.816;2022-12-16T04:17:18;26.93;;;17.40;;
64887;SDS011;51386;53.082;8.816;2022-12-16T04:20:04;22.73;;;15.43;;
64887;SDS011;51386;53.082;8.816;2022-12-16T04:23:00;26.13;;;16.90;;
64887;SDS011;51386;53.082;8.816;2022-12-16T04:25:47;21.97;;;15.50;;
64887;SDS011;51386;53.082;8.816;2022-12-16T04:28:15;24.53;;;14.90;;
64887;SDS011;51386;53.082;8.816;2022-12-16T04:30:42;22.27;;;14.93;;
64887;SDS011;51386;53.082;8.816;2022-12-16T04:33:10;21.70;;;15.87;;
64887;SDS011;51386;53.082;8.816;2022-12-16T04:35:58;21.87;;;15.33;;
64887;SDS011;51386;53.082;8.816;2022-12-16T04:38:45;21.03;;;14.90;;
64887;SDS011;51386;53.082;8.816;2022-12-16T04:41:31;23.87;;;15.60;;
64887;SDS011;51386;53.082;8.816;2022-12-16T04:44:16;19.53;;;14.93;;
64887;SDS011;51386;53.082;8.816;2022-12-16T04:47:02;21.63;;;15.47;;
64887;SDS011;51386;53.082;8.816;2022-12-16T04:49:48;22.17;;;16.13;;
64887;SDS011;51386;53.082;8.816;2022-12-16T04:52:34;25.80;;;18.97;;
64887;SDS011;51386;53.082;8.816;2022-12-16T04:55:21;23.57;;;16.37;;
64887;SDS011;51386;53.082;8.816;2022-12-16T04:58:06;22.40;;;16.23;;
64887;SDS011;51386;53.082;8.816;2022-12-16T05:00:52;22.57;;;15.70;;
64887;SDS011;51386;53.082;8.816;2022-12-16T05:03:37;23.13;;;14.73;;
64887;SDS011;51386;53.082;8.816;2022-12-16T05:06:23;25.20;;;16.73;;
64887;SDS011;51386;53.082;8.816;2022-12-16T05:09:08;22.93;;;14.60;;
64887;SDS011;51386;53.082;8.816;2022-12-16T05:11:55;22.07;;;15.40;;
64887;SDS011;51386;53.082;8.816;2022-12-16T05:14:41;24.87;;;15.97;;
64887;SDS011;51386;53.082;8.816;2022-12-16T05:17:27;20.13;;;14.70;;
64887;SDS011;51386;53.082;8.816;2022-12-16T05:20:13;21.73;;;15.53;;
64887;SDS011;51386;53.082;8.816;2022-12-16T05:22:58;22.50;;;16.03;;
64887;SDS011;51386;53.082;8.816;2022-12-16T05:25:44;21.77;;;14.27;;
64887;SDS011;51386;53.082;8.816;2022-12-16T05:28:31;21.33;;;15.30;;
64887;SDS011;51386;53.082;8.816;2022-12-16T05:31:17;21.30;;;15.53;;
64887;SDS011;51386;53.082;8.816;2022-12-16T05:34:03;22.53;;;15.03;;
64887;SDS011;51386;53.082;8.816;2022-12-16T05:36:49;24.03;;;15.47;;
64887;SDS011;51386;53.082;8.816;2022-12-16T05:39:34;19.13;;;14.83;;
64887;SDS011;51386;53.082;8.816;2022-12-16T05:42:21;25.43;;;15.80;;
64887;SDS011;51386;53.082;8.816;2022-12-16T05:45:08;22.03;;;14.87;;
64887;SDS011;51386;53.082;8.816;2022-12-16T05:47:54;22.07;;;15.47;;
64887;SDS011;51386;53.082;8.816;2022-12-16T05:50:40;20.57;;;14.73;;
64887;SDS011;51386;53.082;8.816;2022-12-16T05:53:26;23.60;;;14.97;;
64887;SDS011;51386;53.082;8.816;2022-12-16T05:56:11;22.70;;;15.67;;
64887;SDS011;51386;53.082;8.816;2022-12-16T05:58:57;24.20;;;15.10;;
64887;SDS011;51386;53.082;8.816;2022-12-16T06:01:43;18.77;;;14.77;;
64887;SDS011;51386;53.082;8.816;2022-12-16T06:04:29;22.53;;;15.83;;
64887;SDS011;51386;53.082;8.816;2022-12-16T06:07:15;21.10;;;14.83;;
64887;SDS011;51386;53.082;8.816;2022-12-16T06:10:01;21.17;;;14.53;;
64887;SDS011;51386;53.082;8.816;2022-12-16T06:13:02;23.33;;;16.23;;
64887;SDS011;51386;53.082;8.816;2022-12-16T06:15:47;20.70;;;14.57;;
64887;SDS011;51386;53.082;8.816;2022-12-16T06:18:35;20.30;;;14.40;;
64887;SDS011;51386;53.082;8.816;2022-12-16T06:21:21;22.57;;;15.77;;
64887;SDS011;51386;53.082;8.816;2022-12-16T06:24:08;23.80;;;16.07;;
64887;SDS011;51386;53.082;8.816;2022-12-16T06:26:54;27.00;;;16.33;;
64887;SDS011;51386;53.082;8.816;2022-12-16T06:29:39;24.10;;;16.10;;
64887;SDS011;51386;53.082;8.816;2022-12-16T06:32:25;24.27;;;14.83;;
64887;SDS011;51386;53.082;8.816;2022-12-16T06:35:12;28.13;;;16.73;;
64887;SDS011;51386;53.082;8.816;2022-12-16T06:37:57;27.10;;;16.33;;
64887;SDS011;51386;53.082;8.816;2022-12-16T06:40:43;27.73;;;16.23;;
64887;SDS011;51386;53.082;8.816;2022-12-16T06:43:28;25.47;;;15.97;;
64887;SDS011;51386;53.082;8.816;2022-12-16T06:46:14;22.77;;;15.33;;
64887;SDS011;51386;53.082;8.816;2022-12-16T06:48:59;22.53;;;15.57;;
64887;SDS011;51386;53.082;8.816;2022-12-16T06:51:46;21.93;;;14.83;;
64887;SDS011;51386;53.082;8.816;2022-12-16T06:54:32;27.27;;;15.47;;
64887;SDS011;51386;53.082;8.816;2022-12-16T06:57:17;25.10;;;15.53;;
64887;SDS011;51386;53.082;8.816;2022-12-16T07:00:03;24.27;;;15.83;;
64887;SDS011;51386;53.082;8.816;2022-12-16T07:02:53;25.23;;;16.03;;
64887;SDS011;51386;53.082;8.816;2022-12-16T07:05:42;26.00;;;15.70;;
64887;SDS011;51386;53.082;8.816;2022-12-16T07:08:29;29.03;;;16.30;;
64887;SDS011;51386;53.082;8.816;2022-12-16T07:11:14;31.50;;;16.27;;
64887;SDS011;51386;53.082;8.816;2022-12-16T07:14:00;29.23;;;17.23;;
64887;SDS011;51386;53.082;8.816;2022-12-16T07:16:46;28.90;;;17.67;;
64887;SDS011;51386;53.082;8.816;2022-12-16T07:19:31;31.50;;;18.13;;
64887;SDS011;51386;53.082;8.816;2022-12-16T07:22:17;33.47;;;19.73;;
64887;SDS011;51386;53.082;8.816;2022-12-16T07:25:04;31.43;;;19.17;;
64887;SDS011;51386;53.082;8.816;2022-12-16T07:27:51;34.27;;;19.67;;
64887;SDS011;51386;53.082;8.816;2022-12-16T07:30:41;39.50;;;24.13;;
64887;SDS011;51386;53.082;8.816;2022-12-16T07:33:27;46.70;;;25.20;;
64887;SDS011;51386;53.082;8.816;2022-12-16T07:36:13;39.23;;;21.23;;
64887;SDS011;51386;53.082;8.816;2022-12-16T07:38:58;39.30;;;20.53;;
64887;SDS011;51386;53.082;8.816;2022-12-16T07:41:45;36.47;;;18.33;;
64887;SDS011;51386;53.082;8.816;2022-12-16T07:44:31;34.07;;;19.87;;
64887;SDS011;51386;53.082;8.816;2022-12-16T07:47:16;33.33;;;19.50;;
64887;SDS011;51386;53.082;8.816;2022-12-16T07:50:02;37.77;;;19.67;;
64887;SDS011;51386;53.082;8.816;2022-12-16T07:52:52;42.30;;;22.07;;
64887;SDS011;51386;53.082;8.816;2022-12-16T07:55:38;40.33;;;20.57;;
64887;SDS011;51386;53.082;8.816;2022-12-16T07:58:25;34.17;;;20.60;;
64887;SDS011;51386;53.082;8.816;2022-12-16T08:01:11;38.37;;;20.70;;
64887;SDS011;51386;53.082;8.816;2022-12-16T08:03:58;33.67;;;20.67;;
64887;SDS011;51386;53.082;8.816;2022-12-16T08:06:43;38.57;;;20.80;;
64887;SDS011;51386;53.082;8.816;2022-12-16T08:09:29;32.27;;;20.10;;
64887;SDS011;51386;53.082;8.816;2022-12-16T08:12:15;35.37;;;20.93;;
64887;SDS011;51386;53.082;8.816;2022-12-16T08:15:04;39.30;;;22.57;;
64887;SDS011;51386;53.082;8.816;2022-12-16T08:17:50;32.30;;;19.10;;
64887;SDS011;51386;53.082;8.816;2022-12-16T08:20:37;32.00;;;20.03;;
64887;SDS011;51386;53.082;8.816;2022-12-16T08:23:23;28.00;;;18.40;;
64887;SDS011;51386;53.082;8.816;2022-12-16T08:26:09;30.30;;;20.00;;
64887;SDS011;51386;53.082;8.816;2022-12-16T08:28:55;35.80;;;20.27;;
64887;SDS011;51386;53.082;8.816;2022-12-16T08:32:02;32.60;;;19.33;;
64887;SDS011;51386;53.082;8.816;2022-12-16T08:34:48;32.23;;;18.50;;
64887;SDS011;51386;53.082;8.816;2022-12-16T08:37:33;30.60;;;19.63;;
64887;SDS011;51386;53.082;8.816;2022-12-16T08:40:19;34.60;;;20.33;;
64887;SDS011;51386;53.082;8.816;2022-12-16T08:43:08;31.33;;;20.30;;
64887;SDS011;51386;53.082;8.816;2022-12-16T08:45:54;34.03;;;20.53;;
64887;SDS011;51386;53.082;8.816;2022-12-16T08:48:42;32.93;;;20.57;;
64887;SDS011;51386;53.082;8.816;2022-12-16T08:51:27;33.40;;;20.07;;
64887;SDS011;51386;53.082;8.816;2022-12-16T08:54:13;37.70;;;20.27;;
64887;SDS011;51386;53.082;8.816;2022-12-16T08:56:59;35.37;;;20.13;;
64887;SDS011;51386;53.082;8.816;2022-12-16T08:59:45;38.10;;;19.63;;
64887;SDS011;51386;53.082;8.816;2022-12-16T09:02:31;33.40;;;21.07;;
64887;SDS011;51386;53.082;8.816;2022-12-16T09:05:19;36.20;;;21.37;;
64887;SDS011;51386;53.082;8.816;2022-12-16T09:08:05;32.10;;;20.40;;
64887;SDS011;51386;53.082;8.816;2022-12-16T09:10:51;69.83;;;40.93;;
64887;SDS011;51386;53.082;8.816;2022-12-16T09:13:38;63.20;;;39.83;;
64887;SDS011;51386;53.082;8.816;2022-12-16T09:16:23;56.67;;;36.10;;
64887;SDS011;51386;53.082;8.816;2022-12-16T09:19:09;33.47;;;19.73;;
64887;SDS011;51386;53.082;8.816;2022-12-16T09:21:56;34.43;;;19.90;;
64887;SDS011;51386;53.082;8.816;2022-12-16T09:24:42;29.07;;;18.93;;
64887;SDS011;51386;53.082;8.816;2022-12-16T09:27:28;30.77;;;19.67;;
64887;SDS011;51386;53.082;8.816;2022-12-16T09:30:13;33.43;;;19.40;;
64887;SDS011;51386;53.082;8.816;2022-12-16T09:33:00;33.50;;;21.77;;
64887;SDS011;51386;53.082;8.816;2022-12-16T09:35:46;37.10;;;20.20;;
64887;SDS011;51386;53.082;8.816;2022-12-16T09:38:53;36.50;;;22.23;;
64887;SDS011;51386;53.082;8.816;2022-12-16T09:41:40;35.77;;;20.83;;
64887;SDS011;51386;53.082;8.816;2022-12-16T09:44:30;34.03;;;20.37;;
64887;SDS011;51386;53.082;8.816;2022-12-16T09:47:33;30.17;;;19.50;;
64887;SDS011;51386;53.082;8.816;2022-12-16T09:50:32;36.00;;;22.07;;
64887;SDS011;51386;53.082;8.816;2022-12-16T09:53:23;30.93;;;20.13;;
64887;SDS011;51386;53.082;8.816;2022-12-16T09:56:14;28.77;;;20.07;;
64887;SDS011;51386;53.082;8.816;2022-12-16T09:59:05;32.23;;;21.17;;
64887;SDS011;51386;53.082;8.816;2022-12-16T10:01:58;29.77;;;18.37;;
64887;SDS011;51386;53.082;8.816;2022-12-16T10:04:46;30.50;;;21.13;;
64887;SDS011;51386;53.082;8.816;2022-12-16T10:07:36;25.63;;;17.93;;
64887;SDS011;51386;53.082;8.816;2022-12-16T10:10:35;29.80;;;19.80;;
64887;SDS011;51386;53.082;8.816;2022-12-16T10:13:38;26.37;;;17.87;;
64887;SDS011;51386;53.082;8.816;2022-12-16T10:16:35;30.73;;;20.23;;
64887;SDS011;51386;53.082;8.816;2022-12-16T10:19:36;25.50;;;18.77;;
64887;SDS011;51386;53.082;8.816;2022-12-16T10:22:38;26.10;;;17.40;;
64887;SDS011;51386;53.082;8.816;2022-12-16T10:25:36;25.00;;;16.60;;
64887;SDS011;51386;53.082;8.816;2022-12-16T10:28:35;24.07;;;17.90;;
64887;SDS011;51386;53.082;8.816;2022-12-16T10:31:30;27.10;;;17.83;;
64887;SDS011;51386;53.082;8.816;2022-12-16T10:34:18;65.43;;;42.33;;
64887;SDS011;51386;53.082;8.816;2022-12-16T10:37:11;112.37;;;78.87;;
64887;SDS011;51386;53.082;8.816;2022-12-16T10:40:05;33.67;;;21.53;;
64887;SDS011;51386;53.082;8.816;2022-12-16T10:43:00;27.73;;;19.77;;
64887;SDS011;51386;53.082;8.816;2022-12-16T10:45:51;23.40;;;17.40;;
64887;SDS011;51386;53.082;8.816;2022-12-16T10:48:40;23.83;;;16.93;;
64887;SDS011;51386;53.082;8.816;2022-12-16T10:51:27;25.03;;;17.33;;
64887;SDS011;51386;53.082;8.816;2022-12-16T10:54:19;23.13;;;17.37;;
64887;SDS011;51386;53.082;8.816;2022-12-16T10:57:19;24.70;;;18.50;;
64887;SDS011;51386;53.082;8.816;2022-12-16T11:00:17;26.90;;;18.90;;
64887;SDS011;51386;53.082;8.816;2022-12-16T11:03:23;23.80;;;17.00;;
64887;SDS011;51386;53.082;8.816;2022-12-16T11:06:14;22.80;;;15.87;;
64887;SDS011;51386;53.082;8.816;2022-12-16T11:09:19;23.90;;;16.67;;
64887;SDS011;51386;53.082;8.816;2022-12-16T11:12:23;19.97;;;14.40;;
64887;SDS011;51386;53.082;8.816;2022-12-16T11:15:18;19.80;;;16.27;;
64887;SDS011;51386;53.082;8.816;2022-12-16T11:18:09;29.17;;;19.13;;
64887;SDS011;51386;53.082;8.816;2022-12-16T11:21:13;25.83;;;18.90;;
64887;SDS011;51386;53.082;8.816;2022-12-16T11:24:06;24.90;;;18.43;;
64887;SDS011;51386;53.082;8.816;2022-12-16T11:26:59;33.33;;;20.70;;
64887;SDS011;51386;53.082;8.816;2022-12-16T11:29:47;36.17;;;20.43;;
64887;SDS011;51386;53.082;8.816;2022-12-16T11:32:36;27.13;;;19.00;;
64887;SDS011;51386;53.082;8.816;2022-12-16T11:35:25;27.97;;;18.70;;
64887;SDS011;51386;53.082;8.816;2022-12-16T11:38:20;27.53;;;18.27;;
64887;SDS011;51386;53.082;8.816;2022-12-16T11:41:17;25.30;;;17.23;;
64887;SDS011;51386;53.082;8.816;2022-12-16T11:44:15;35.43;;;27.10;;
64887;SDS011;51386;53.082;8.816;2022-12-16T11:47:10;28.70;;;20.03;;
64887;SDS011;51386;53.082;8.816;2022-12-16T11:50:08;24.53;;;17.53;;
64887;SDS011;51386;53.082;8.816;2022-12-16T11:53:01;28.20;;;19.97;;
64887;SDS011;51386;53.082;8.816;2022-12-16T11:55:58;32.83;;;22.77;;
64887;SDS011;51386;53.082;8.816;2022-12-16T11:58:44;53.13;;;35.30;;
64887;SDS011;51386;53.082;8.816;2022-12-16T12:01:36;28.70;;;19.20;;
64887;SDS011;51386;53.082;8.816;2022-12-16T12:04:29;27.63;;;19.27;;
64887;SDS011;51386;53.082;8.816;2022-12-16T12:07:25;26.87;;;19.17;;
64887;SDS011;51386;53.082;8.816;2022-12-16T12:13:52;26.20;;;19.10;;
64887;SDS011;51386;53.082;8.816;2022-12-16T12:16:56;26.70;;;20.10;;
64887;SDS011;51386;53.082;8.816;2022-12-16T12:20:00;27.23;;;20.03;;
64887;SDS011;51386;53.082;8.816;2022-12-16T12:23:11;28.63;;;20.37;;
64887;SDS011;51386;53.082;8.816;2022-12-16T12:26:16;29.83;;;22.23;;
64887;SDS011;51386;53.082;8.816;2022-12-16T12:29:17;30.07;;;21.57;;
64887;SDS011;51386;53.082;8.816;2022-12-16T12:32:17;27.30;;;20.33;;
64887;SDS011;51386;53.082;8.816;2022-12-16T12:35:21;32.13;;;19.40;;
64887;SDS011;51386;53.082;8.816;2022-12-16T12:38:27;28.67;;;20.97;;
64887;SDS011;51386;53.082;8.816;2022-12-16T12:41:27;26.13;;;20.47;;
64887;SDS011;51386;53.082;8.816;2022-12-16T12:44:26;26.70;;;18.90;;
64887;SDS011;51386;53.082;8.816;2022-12-16T12:47:30;27.77;;;19.20;;
64887;SDS011;51386;53.082;8.816;2022-12-16T12:50:22;27.33;;;20.00;;
64887;SDS011;51386;53.082;8.816;2022-12-16T12:53:20;27.03;;;19.33;;
64887;SDS011;51386;53.082;8.816;2022-12-16T12:56:23;28.17;;;19.83;;
64887;SDS011;51386;53.082;8.816;2022-12-16T12:59:24;27.03;;;19.77;;
64887;SDS011;51386;53.082;8.816;2022-12-16T13:02:28;26.37;;;18.20;;
64887;SDS011;51386;53.082;8.816;2022-12-16T13:05:26;28.53;;;19.97;;
64887;SDS011;51386;53.082;8.816;2022-12-16T13:15:18;27.60;;;20.13;;
64887;SDS011;51386;53.082;8.816;2022-12-16T13:18:20;24.67;;;18.70;;
64887;SDS011;51386;53.082;8.816;2022-12-16T13:24:34;25.13;;;18.57;;
64887;SDS011;51386;53.082;8.816;2022-12-16T13:27:25;35.37;;;26.87;;
64887;SDS011;51386;53.082;8.816;2022-12-16T13:30:29;25.50;;;19.23;;
64887;SDS011;51386;53.082;8.816;2022-12-16T13:33:24;24.83;;;17.97;;
64887;SDS011;51386;53.082;8.816;2022-12-16T13:36:13;25.20;;;19.30;;
64887;SDS011;51386;53.082;8.816;2022-12-16T13:39:17;26.17;;;19.23;;
64887;SDS011;51386;53.082;8.816;2022-12-16T13:45:35;26.37;;;19.37;;
64887;SDS011;51386;53.082;8.816;2022-12-16T13:48:28;23.97;;;18.37;;
64887;SDS011;51386;53.082;8.816;2022-12-16T13:54:46;24.27;;;18.87;;
64887;SDS011;51386;53.082;8.816;2022-12-16T13:57:51;23.07;;;17.40;;
64887;SDS011;51386;53.082;8.816;2022-12-16T14:00:52;26.30;;;18.33;;
64887;SDS011;51386;53.082;8.816;2022-12-16T14:03:46;27.70;;;17.93;;
64887;SDS011;51386;53.082;8.816;2022-12-16T14:06:35;23.43;;;17.10;;
64887;SDS011;51386;53.082;8.816;2022-12-16T14:09:27;19.10;;;15.70;;
64887;SDS011;51386;53.082;8.816;2022-12-16T14:12:41;20.67;;;15.70;;
64887;SDS011;51386;53.082;8.816;2022-12-16T14:15:44;21.07;;;15.00;;
64887;SDS011;51386;53.082;8.816;2022-12-16T14:18:47;23.30;;;17.60;;
64887;SDS011;51386;53.082;8.816;2022-12-16T14:21:53;23.93;;;19.13;;
64887;SDS011;51386;53.082;8.816;2022-12-16T14:25:01;23.33;;;17.10;;
64887;SDS011;51386;53.082;8.816;2022-12-16T14:27:54;21.53;;;16.50;;
64887;SDS011;51386;53.082;8.816;2022-12-16T14:30:42;22.17;;;15.70;;
64887;SDS011;51386;53.082;8.816;2022-12-16T14:33:27;19.40;;;15.07;;
64887;SDS011;51386;53.082;8.816;2022-12-16T14:36:17;24.17;;;18.03;;
64887;SDS011;51386;53.082;8.816;2022-12-16T14:39:09;23.80;;;17.50;;
64887;SDS011;51386;53.082;8.816;2022-12-16T14:41:57;25.90;;;18.23;;
64887;SDS011;51386;53.082;8.816;2022-12-16T14:44:45;25.23;;;17.73;;
64887;SDS011;51386;53.082;8.816;2022-12-16T14:47:32;24.10;;;17.23;;
64887;SDS011;51386;53.082;8.816;2022-12-16T14:50:25;25.13;;;19.33;;
64887;SDS011;51386;53.082;8.816;2022-12-16T14:53:14;25.60;;;18.23;;
64887;SDS011;51386;53.082;8.816;2022-12-16T14:56:13;24.37;;;18.00;;
64887;SDS011;51386;53.082;8.816;2022-12-16T14:59:06;24.53;;;18.87;;
64887;SDS011;51386;53.082;8.816;2022-12-16T15:02:11;28.53;;;18.33;;
64887;SDS011;51386;53.082;8.816;2022-12-16T15:05:12;26.57;;;18.90;;
64887;SDS011;51386;53.082;8.816;2022-12-16T15:07:58;21.03;;;17.10;;
64887;SDS011;51386;53.082;8.816;2022-12-16T15:10:45;26.47;;;17.53;;
64887;SDS011;51386;53.082;8.816;2022-12-16T15:13:31;29.10;;;19.13;;
64887;SDS011;51386;53.082;8.816;2022-12-16T15:16:28;25.23;;;19.80;;
64887;SDS011;51386;53.082;8.816;2022-12-16T15:19:20;25.50;;;17.70;;
64887;SDS011;51386;53.082;8.816;2022-12-16T15:22:10;24.87;;;17.33;;
64887;SDS011;51386;53.082;8.816;2022-12-16T15:25:01;30.00;;;18.67;;
64887;SDS011;51386;53.082;8.816;2022-12-16T15:27:52;26.10;;;17.70;;
64887;SDS011;51386;53.082;8.816;2022-12-16T15:30:59;23.83;;;17.23;;
64887;SDS011;51386;53.082;8.816;2022-12-16T15:37:13;20.43;;;15.47;;
64887;SDS011;51386;53.082;8.816;2022-12-16T15:40:23;22.20;;;17.40;;
64887;SDS011;51386;53.082;8.816;2022-12-16T15:46:23;22.27;;;16.23;;
64887;SDS011;51386;53.082;8.816;2022-12-16T15:49:16;21.50;;;16.80;;
64887;SDS011;51386;53.082;8.816;2022-12-16T15:52:22;27.57;;;17.87;;
64887;SDS011;51386;53.082;8.816;2022-12-16T15:55:22;23.67;;;17.43;;
64887;SDS011;51386;53.082;8.816;2022-12-16T15:58:14;25.87;;;17.27;;
64887;SDS011;51386;53.082;8.816;2022-12-16T16:01:05;25.97;;;18.87;;
64887;SDS011;51386;53.082;8.816;2022-12-16T16:03:53;25.60;;;18.47;;
64887;SDS011;51386;53.082;8.816;2022-12-16T16:06:40;27.73;;;19.60;;
64887;SDS011;51386;53.082;8.816;2022-12-16T16:09:34;27.93;;;21.20;;
64887;SDS011;51386;53.082;8.816;2022-12-16T16:12:22;29.00;;;20.63;;
64887;SDS011;51386;53.082;8.816;2022-12-16T16:15:10;25.93;;;19.40;;
64887;SDS011;51386;53.082;8.816;2022-12-16T16:18:00;31.60;;;20.23;;
64887;SDS011;51386;53.082;8.816;2022-12-16T16:20:50;25.07;;;18.43;;
64887;SDS011;51386;53.082;8.816;2022-12-16T16:23:36;29.17;;;18.77;;
64887;SDS011;51386;53.082;8.816;2022-12-16T16:26:24;27.47;;;18.10;;
64887;SDS011;51386;53.082;8.816;2022-12-16T16:29:12;24.33;;;18.43;;
64887;SDS011;51386;53.082;8.816;2022-12-16T16:31:57;25.00;;;17.37;;
64887;SDS011;51386;53.082;8.816;2022-12-16T16:34:43;24.20;;;17.83;;
64887;SDS011;51386;53.082;8.816;2022-12-16T16:37:29;24.73;;;18.07;;